Time;durP1;ratioP1;P1;durP2;ratioP2;P2;SDS_P1;SDS_P2;PMS_P1;PMS_P2;Temp;Humidity;BMP_temperature;BMP_pressure;BME280_temperature;BME280_humidity;BME280_pressure;Samples;Min_cycle;Max_cycle;Signal;HPM_P1;HPM_P2
2020/12/16 00:02:06;;;;;;;516.73;482.17;;;;;;;;;;4943988;29;20183;-72
2020/12/16 00:04:33;;;;;;;713.20;657.70;;;;;;;;;;4939496;29;20190;-71
2020/12/16 00:07:00;;;;;;;583.87;542.93;;;;;;;;;;4950751;28;20178;-70
2020/12/16 00:09:26;;;;;;;666.93;617.23;;;;;;;;;;4949019;28;20175;-69
2020/12/16 00:11:53;;;;;;;552.57;513.10;;;;;;;;;;4945505;28;20284;-69
2020/12/16 00:14:20;;;;;;;656.03;606.43;;;;;;;;;;4945835;28;20811;-70
2020/12/16 00:16:46;;;;;;;633.00;586.10;;;;;;;;;;4943707;29;20187;-69
2020/12/16 00:19:13;;;;;;;567.00;527.83;;;;;;;;;;4944628;29;20170;-71
2020/12/16 00:21:41;;;;;;;770.60;705.23;;;;;;;;;;4943889;29;20261;-70
2020/12/16 00:24:09;;;;;;;824.63;751.43;;;;;;;;;;4943852;28;20226;-69
2020/12/16 00:26:35;;;;;;;699.20;642.77;;;;;;;;;;4944474;28;20269;-69
2020/12/16 00:29:02;;;;;;;753.03;691.07;;;;;;;;;;4943852;29;20191;-69
2020/12/16 00:31:29;;;;;;;675.93;622.43;;;;;;;;;;4943607;29;20183;-70
2020/12/16 00:33:56;;;;;;;724.80;666.33;;;;;;;;;;4948640;28;20238;-70
2020/12/16 00:36:25;;;;;;;588.27;545.00;;;;;;;;;;4945798;28;20183;-72
2020/12/16 00:38:53;;;;;;;639.30;587.87;;;;;;;;;;4943214;28;20627;-69
2020/12/16 00:41:20;;;;;;;648.13;598.37;;;;;;;;;;4944313;29;20206;-72
2020/12/16 00:43:47;;;;;;;726.77;667.80;;;;;;;;;;4949134;28;20175;-68
2020/12/16 00:46:14;;;;;;;742.30;676.67;;;;;;;;;;4944608;29;20230;-71
2020/12/16 00:48:41;;;;;;;604.20;562.37;;;;;;;;;;4946450;28;20183;-71
2020/12/16 00:51:07;;;;;;;675.57;630.27;;;;;;;;;;4941759;29;20190;-72
2020/12/16 00:53:37;;;;;;;642.17;601.57;;;;;;;;;;4941415;28;20296;-72
2020/12/16 00:56:05;;;;;;;683.53;632.00;;;;;;;;;;4943049;29;20215;-72
2020/12/16 00:58:32;;;;;;;761.03;707.63;;;;;;;;;;4944271;29;20183;-71
2020/12/16 01:00:59;;;;;;;796.37;737.93;;;;;;;;;;4946592;28;20274;-71
2020/12/16 01:03:26;;;;;;;690.93;645.30;;;;;;;;;;4943498;29;20987;-72
2020/12/16 01:05:52;;;;;;;638.47;597.60;;;;;;;;;;4949444;28;20210;-71
2020/12/16 01:08:19;;;;;;;662.87;617.77;;;;;;;;;;4944384;29;20183;-71
2020/12/16 01:10:46;;;;;;;811.53;743.23;;;;;;;;;;4942773;29;20282;-72
2020/12/16 01:13:16;;;;;;;679.57;632.50;;;;;;;;;;4947746;28;20178;-72
2020/12/16 01:15:43;;;;;;;684.90;639.67;;;;;;;;;;4944552;29;20221;-71
2020/12/16 01:18:09;;;;;;;676.17;631.73;;;;;;;;;;4946537;28;20190;-74
2020/12/16 01:20:36;;;;;;;587.90;551.77;;;;;;;;;;4946669;28;20186;-72
2020/12/16 01:23:05;;;;;;;577.87;542.03;;;;;;;;;;4941592;28;20198;-72
2020/12/16 01:25:31;;;;;;;762.47;704.13;;;;;;;;;;4943609;28;20190;-72
2020/12/16 01:27:59;;;;;;;675.77;628.77;;;;;;;;;;4942644;28;20294;-71
2020/12/16 01:30:27;;;;;;;565.83;532.60;;;;;;;;;;4949034;28;20195;-71
2020/12/16 01:32:55;;;;;;;787.50;729.50;;;;;;;;;;4942402;28;20226;-70
2020/12/16 01:35:22;;;;;;;589.13;553.43;;;;;;;;;;4922566;29;20843;-70
2020/12/16 01:37:49;;;;;;;821.80;757.07;;;;;;;;;;4930663;29;20274;-72
2020/12/16 01:40:16;;;;;;;706.73;657.17;;;;;;;;;;4923061;29;20219;-73
2020/12/16 01:42:43;;;;;;;711.83;662.63;;;;;;;;;;4924660;29;20745;-72
2020/12/16 01:45:11;;;;;;;585.90;550.20;;;;;;;;;;4924596;29;20286;-72
2020/12/16 01:47:44;;;;;;;708.10;657.47;;;;;;;;;;4926997;29;20246;-72
2020/12/16 01:50:13;;;;;;;700.00;650.47;;;;;;;;;;4921986;29;20285;-71
2020/12/16 01:52:40;;;;;;;683.30;635.07;;;;;;;;;;4924941;29;20232;-72
2020/12/16 01:55:13;;;;;;;637.93;598.03;;;;;;;;;;4917910;29;20325;-71
2020/12/16 01:57:41;;;;;;;731.63;682.97;;;;;;;;;;4924811;29;20621;-70
2020/12/16 02:00:09;;;;;;;781.93;723.30;;;;;;;;;;4923176;29;20181;-72
2020/12/16 02:02:38;;;;;;;612.53;576.03;;;;;;;;;;4924453;29;20187;-72
2020/12/16 02:05:05;;;;;;;750.63;696.33;;;;;;;;;;4924659;29;20833;-74
2020/12/16 02:07:32;;;;;;;665.53;621.93;;;;;;;;;;4924494;29;20538;-73
2020/12/16 02:09:59;;;;;;;659.03;614.43;;;;;;;;;;4924532;29;20175;-73
2020/12/16 02:12:29;;;;;;;782.87;724.00;;;;;;;;;;4923399;29;20669;-73
2020/12/16 02:14:58;;;;;;;630.67;590.50;;;;;;;;;;4925705;29;20209;-73
2020/12/16 02:17:27;;;;;;;553.77;521.23;;;;;;;;;;4930467;29;20193;-73
2020/12/16 02:19:55;;;;;;;667.37;620.73;;;;;;;;;;4918796;29;20221;-73
2020/12/16 02:22:23;;;;;;;484.90;455.60;;;;;;;;;;4919584;29;20198;-72
2020/12/16 02:25:01;;;;;;;729.73;674.87;;;;;;;;;;4923971;29;20197;-73
2020/12/16 02:27:28;;;;;;;551.40;519.83;;;;;;;;;;4925306;29;20218;-73
2020/12/16 02:29:56;;;;;;;748.00;687.87;;;;;;;;;;4923446;29;20239;-72
2020/12/16 02:32:26;;;;;;;562.40;527.30;;;;;;;;;;4922751;29;20545;-72
2020/12/16 02:34:54;;;;;;;596.27;554.37;;;;;;;;;;4938991;29;20254;-71
2020/12/16 02:37:20;;;;;;;685.60;636.93;;;;;;;;;;4938403;28;20776;-71
2020/12/16 02:39:48;;;;;;;559.63;524.23;;;;;;;;;;4941779;28;20277;-72
2020/12/16 02:42:15;;;;;;;528.90;496.93;;;;;;;;;;4942612;29;20186;-72
2020/12/16 02:44:42;;;;;;;647.53;606.43;;;;;;;;;;4941318;29;20191;-72
2020/12/16 02:47:09;;;;;;;588.60;553.43;;;;;;;;;;4957374;23;20167;-67
2020/12/16 02:49:36;;;;;;;715.40;664.03;;;;;;;;;;4969174;28;20828;-67
2020/12/16 02:52:04;;;;;;;596.93;557.27;;;;;;;;;;4970377;28;20185;-67
2020/12/16 02:54:30;;;;;;;793.97;732.13;;;;;;;;;;4969103;28;20654;-67
2020/12/16 02:56:57;;;;;;;654.03;606.73;;;;;;;;;;4967036;28;20178;-67
2020/12/16 02:59:28;;;;;;;840.17;771.83;;;;;;;;;;4965512;28;20184;-67
2020/12/16 13:52:50;;;;;;;268.00;252.13;;;;;;;;;;4533541;27;15615933;-67
2020/12/16 13:55:19;;;;;;;518.50;478.80;;;;;;;;;;5119665;28;20173;-67
2020/12/16 13:57:45;;;;;;;496.50;466.23;;;;;;;;;;5119114;28;20180;-67
2020/12/16 14:00:12;;;;;;;619.93;577.43;;;;;;;;;;5116849;28;20197;-67
2020/12/16 14:02:38;;;;;;;441.30;411.07;;;;;;;;;;5120185;28;20177;-67
2020/12/16 14:05:05;;;;;;;434.60;404.83;;;;;;;;;;5111641;28;20208;-67
2020/12/16 14:07:32;;;;;;;397.50;372.20;;;;;;;;;;5117248;28;20871;-68
2020/12/16 14:09:58;;;;;;;521.20;483.37;;;;;;;;;;5114762;28;20196;-67
2020/12/16 14:12:25;;;;;;;371.60;346.07;;;;;;;;;;5118758;28;20197;-67
2020/12/16 14:14:51;;;;;;;506.43;472.80;;;;;;;;;;5114383;28;20244;-67
2020/12/16 14:17:19;;;;;;;437.70;410.00;;;;;;;;;;5114253;28;20848;-67
2020/12/16 14:19:45;;;;;;;573.07;530.47;;;;;;;;;;5116963;28;20186;-67
2020/12/16 14:22:14;;;;;;;584.33;543.73;;;;;;;;;;5118411;28;20242;-67
2020/12/16 14:24:40;;;;;;;686.70;636.80;;;;;;;;;;5116385;28;21107;-66
2020/12/16 14:27:07;;;;;;;516.90;484.83;;;;;;;;;;5099768;28;20195;-67
2020/12/16 14:29:34;;;;;;;650.10;597.50;;;;;;;;;;5111369;28;20169;-67
2020/12/16 14:32:00;;;;;;;603.47;559.27;;;;;;;;;;5117431;28;20224;-67
2020/12/16 14:34:27;;;;;;;703.13;649.87;;;;;;;;;;5115135;28;20259;-67
2020/12/16 14:36:54;;;;;;;621.80;577.73;;;;;;;;;;5118562;28;20177;-67
2020/12/16 14:39:21;;;;;;;624.87;581.63;;;;;;;;;;5119259;28;20936;-67
2020/12/16 14:41:58;;;;;;;751.93;696.33;;;;;;;;;;5116130;28;20268;-67
2020/12/16 14:44:28;;;;;;;682.83;635.13;;;;;;;;;;5117215;28;20181;-67
2020/12/16 14:46:56;;;;;;;751.60;693.60;;;;;;;;;;5115575;28;20193;-67
2020/12/16 14:49:22;;;;;;;697.90;646.80;;;;;;;;;;5115796;28;20185;-68
2020/12/16 14:51:49;;;;;;;670.27;619.47;;;;;;;;;;5117472;28;20787;-68
2020/12/16 14:54:15;;;;;;;719.03;663.80;;;;;;;;;;5117612;28;20293;-68
2020/12/16 14:56:46;;;;;;;575.13;533.20;;;;;;;;;;5118625;28;20629;-67
2020/12/16 14:59:13;;;;;;;720.87;663.23;;;;;;;;;;5116802;28;20178;-68
2020/12/16 15:01:39;;;;;;;624.30;581.93;;;;;;;;;;5115630;28;20177;-68
2020/12/16 15:04:06;;;;;;;719.50;667.73;;;;;;;;;;5100908;28;20189;-68
2020/12/16 15:06:33;;;;;;;688.97;632.63;;;;;;;;;;5105046;28;20185;-67
2020/12/16 15:08:59;;;;;;;700.00;649.50;;;;;;;;;;5101511;28;20255;-67
2020/12/16 15:11:31;;;;;;;768.83;711.10;;;;;;;;;;5104167;28;21071;-67
2020/12/16 15:13:57;;;;;;;762.60;700.07;;;;;;;;;;5101055;28;20193;-67
2020/12/16 15:16:27;;;;;;;792.40;733.73;;;;;;;;;;5104994;28;20174;-67
2020/12/16 15:18:54;;;;;;;792.30;731.00;;;;;;;;;;5104973;28;20276;-67
2020/12/16 15:21:24;;;;;;;773.07;712.63;;;;;;;;;;5100665;28;20178;-67
2020/12/16 17:31:06;;;;;;;708.33;648.33;;;;;;;;;;5373775;23;20240;-67
2020/12/16 17:33:33;;;;;;;781.47;716.13;;;;;;;;;;4929721;29;20192;-68
2020/12/16 17:36:05;;;;;;;652.70;599.57;;;;;;;;;;4925353;29;20645;-69
2020/12/16 17:38:34;;;;;;;740.80;677.43;;;;;;;;;;4924429;29;20187;-66
2020/12/16 17:41:01;;;;;;;674.87;618.73;;;;;;;;;;4923112;29;20230;-67
2020/12/16 17:43:28;;;;;;;685.37;628.93;;;;;;;;;;4925813;29;20196;-66
2020/12/16 17:45:55;;;;;;;664.20;608.63;;;;;;;;;;4925463;29;20958;-66
2020/12/16 17:48:22;;;;;;;736.23;671.47;;;;;;;;;;4926654;29;20199;-66
2020/12/16 17:50:48;;;;;;;707.83;652.47;;;;;;;;;;4922517;29;20223;-67
2020/12/16 17:53:15;;;;;;;735.23;673.87;;;;;;;;;;4923942;29;20255;-67
2020/12/16 17:55:41;;;;;;;755.00;698.67;;;;;;;;;;4925120;29;20195;-67
2020/12/16 17:58:09;;;;;;;775.87;717.20;;;;;;;;;;4926653;29;20267;-66
2020/12/16 18:00:37;;;;;;;788.47;726.80;;;;;;;;;;4926784;29;20192;-68
2020/12/16 18:03:05;;;;;;;810.43;741.20;;;;;;;;;;4927425;29;20199;-66
2020/12/16 18:05:32;;;;;;;836.80;769.40;;;;;;;;;;4927169;29;20184;-66
2020/12/16 18:08:00;;;;;;;850.50;776.23;;;;;;;;;;4926471;29;20188;-67
2020/12/16 18:10:27;;;;;;;719.47;658.93;;;;;;;;;;4926963;29;20212;-68
2020/12/16 18:12:55;;;;;;;623.43;575.60;;;;;;;;;;4925673;29;20234;-66
2020/12/16 18:15:22;;;;;;;755.27;690.70;;;;;;;;;;4924308;29;20194;-65
2020/12/16 18:17:49;;;;;;;738.37;680.80;;;;;;;;;;4925933;29;20217;-66
2020/12/16 18:20:16;;;;;;;687.93;636.73;;;;;;;;;;4926659;29;20705;-66
2020/12/16 18:22:42;;;;;;;840.27;766.07;;;;;;;;;;4926801;29;20188;-67
2020/12/16 18:25:09;;;;;;;771.10;707.47;;;;;;;;;;4926335;29;20270;-67
2020/12/16 18:27:36;;;;;;;785.40;720.47;;;;;;;;;;4926438;29;20323;-66
2020/12/16 18:30:04;;;;;;;847.03;769.60;;;;;;;;;;4925084;29;20278;-67
2020/12/16 18:32:31;;;;;;;903.93;820.37;;;;;;;;;;4924396;29;20295;-67
2020/12/16 18:34:58;;;;;;;934.23;852.03;;;;;;;;;;4926232;29;20191;-67
2020/12/16 18:37:24;;;;;;;837.87;766.33;;;;;;;;;;4926775;29;20180;-66
2020/12/16 18:39:52;;;;;;;724.57;666.50;;;;;;;;;;4930287;29;20183;-66
2020/12/16 18:42:19;;;;;;;796.17;728.37;;;;;;;;;;4929185;29;20183;-67
2020/12/16 18:44:49;;;;;;;778.67;710.63;;;;;;;;;;4929436;29;20697;-66
2020/12/16 18:47:16;;;;;;;790.07;719.03;;;;;;;;;;4927844;29;20178;-67
2020/12/16 18:49:42;;;;;;;855.03;779.37;;;;;;;;;;4927830;29;20200;-67
2020/12/16 18:52:09;;;;;;;858.73;784.80;;;;;;;;;;4929901;29;20216;-67
2020/12/16 18:54:36;;;;;;;884.83;806.77;;;;;;;;;;4929607;29;20184;-67
2020/12/16 18:57:03;;;;;;;873.40;798.67;;;;;;;;;;4929869;29;20197;-68
2020/12/16 18:59:30;;;;;;;857.13;782.50;;;;;;;;;;4929694;29;20194;-69
2020/12/16 19:01:57;;;;;;;844.57;771.53;;;;;;;;;;4929547;29;20230;-68
2020/12/16 19:04:23;;;;;;;820.07;752.67;;;;;;;;;;4928916;29;20184;-68
2020/12/16 19:06:53;;;;;;;790.33;729.40;;;;;;;;;;4929036;29;20184;-66
2020/12/16 19:09:20;;;;;;;741.57;681.80;;;;;;;;;;4925446;29;20239;-66
2020/12/16 19:11:47;;;;;;;743.97;682.43;;;;;;;;;;4927156;29;20278;-66
2020/12/16 19:14:14;;;;;;;713.50;655.07;;;;;;;;;;4923956;29;20665;-67
2020/12/16 19:16:40;;;;;;;718.07;661.67;;;;;;;;;;4922114;29;20195;-67
2020/12/16 19:19:07;;;;;;;843.37;765.07;;;;;;;;;;4925005;29;20192;-67
2020/12/16 19:21:47;;;;;;;817.60;747.77;;;;;;;;;;4927289;29;20515;-65
2020/12/16 19:24:13;;;;;;;808.67;735.30;;;;;;;;;;4928676;29;20218;-66
2020/12/16 19:26:41;;;;;;;821.77;747.40;;;;;;;;;;4928291;29;20798;-67
2020/12/16 19:29:08;;;;;;;940.70;852.30;;;;;;;;;;4929591;29;20222;-67
2020/12/16 19:31:36;;;;;;;751.17;687.00;;;;;;;;;;4927126;29;20232;-69
2020/12/16 19:34:03;;;;;;;919.83;827.00;;;;;;;;;;4936528;23;20239;-76
2020/12/16 19:36:30;;;;;;;742.23;680.47;;;;;;;;;;4925169;29;20184;-73
2020/12/16 19:38:56;;;;;;;658.10;606.03;;;;;;;;;;4926978;29;20283;-75
2020/12/16 19:41:23;;;;;;;715.93;657.23;;;;;;;;;;4926166;29;20207;-67
2020/12/16 19:43:50;;;;;;;749.87;688.03;;;;;;;;;;4925736;29;20188;-74
2020/12/16 19:46:16;;;;;;;958.00;864.33;;;;;;;;;;4925285;29;20635;-75
2020/12/16 19:48:43;;;;;;;689.33;632.77;;;;;;;;;;4924576;29;20228;-74
2020/12/16 19:51:10;;;;;;;693.37;636.67;;;;;;;;;;4928737;29;20218;-74
2020/12/16 19:53:36;;;;;;;623.47;577.83;;;;;;;;;;4926034;29;20742;-67
2020/12/16 19:56:03;;;;;;;799.60;728.47;;;;;;;;;;4921719;29;20286;-67
2020/12/16 19:58:30;;;;;;;779.33;711.10;;;;;;;;;;4921160;29;20183;-76
2020/12/16 20:00:57;;;;;;;869.50;786.80;;;;;;;;;;4924289;29;20184;-76
2020/12/16 20:03:24;;;;;;;731.63;670.03;;;;;;;;;;4925030;29;20195;-75
2020/12/16 20:06:00;;;;;;;616.20;568.37;;;;;;;;;;4926320;29;20191;-76
2020/12/16 20:08:27;;;;;;;608.03;561.67;;;;;;;;;;4921905;29;20195;-76
2020/12/16 20:10:54;;;;;;;731.90;671.30;;;;;;;;;;4925501;29;20226;-74
2020/12/16 20:13:21;;;;;;;541.30;505.10;;;;;;;;;;4923776;29;20278;-78
2020/12/16 20:15:48;;;;;;;662.77;609.90;;;;;;;;;;4925372;29;20206;-68
2020/12/16 20:18:16;;;;;;;540.20;501.57;;;;;;;;;;4925385;29;20187;-75
2020/12/16 20:20:42;;;;;;;686.57;633.47;;;;;;;;;;4925869;29;20644;-77
2020/12/16 20:23:09;;;;;;;867.97;794.97;;;;;;;;;;4926352;29;20635;-78
2020/12/16 20:25:36;;;;;;;759.53;691.50;;;;;;;;;;4924202;29;20187;-67
2020/12/16 20:28:03;;;;;;;845.70;766.67;;;;;;;;;;4924147;29;20183;-67
2020/12/16 20:30:29;;;;;;;756.17;692.23;;;;;;;;;;4925196;29;20184;-66
2020/12/16 20:32:56;;;;;;;829.77;756.13;;;;;;;;;;4924091;29;20273;-67
2020/12/16 20:35:23;;;;;;;721.90;667.00;;;;;;;;;;4926179;29;20250;-77
2020/12/16 20:37:50;;;;;;;796.93;729.00;;;;;;;;;;4925209;29;20274;-66
2020/12/16 20:40:16;;;;;;;827.73;758.73;;;;;;;;;;4921253;29;20243;-70
2020/12/16 20:42:44;;;;;;;901.97;817.63;;;;;;;;;;4920995;29;20314;-71
2020/12/16 20:45:11;;;;;;;807.70;735.50;;;;;;;;;;4922620;29;20192;-66
2020/12/16 20:47:38;;;;;;;873.47;792.70;;;;;;;;;;4922652;29;20199;-67
2020/12/16 20:50:05;;;;;;;751.90;690.73;;;;;;;;;;4923256;29;20206;-65
2020/12/16 20:52:32;;;;;;;683.93;630.97;;;;;;;;;;4921584;29;20282;-65
2020/12/16 20:55:01;;;;;;;865.70;786.47;;;;;;;;;;4919575;29;20190;-65
2020/12/16 20:57:27;;;;;;;694.87;636.77;;;;;;;;;;4917838;29;20620;-65
2020/12/16 20:59:54;;;;;;;905.97;826.17;;;;;;;;;;4921373;29;20195;-73
2020/12/16 21:02:21;;;;;;;845.83;774.97;;;;;;;;;;4916814;29;20664;-73
2020/12/16 21:04:47;;;;;;;784.90;718.53;;;;;;;;;;4923019;29;20192;-72
2020/12/16 21:07:14;;;;;;;835.37;761.27;;;;;;;;;;4921346;29;20191;-72
2020/12/16 21:09:41;;;;;;;866.23;782.63;;;;;;;;;;4915701;29;20298;-71
2020/12/16 21:12:08;;;;;;;787.43;718.60;;;;;;;;;;4919960;29;20221;-72
2020/12/16 21:14:35;;;;;;;851.63;775.37;;;;;;;;;;4921682;29;20628;-73
2020/12/16 21:17:02;;;;;;;917.80;829.13;;;;;;;;;;4920467;29;20187;-72
2020/12/16 21:19:29;;;;;;;864.60;781.73;;;;;;;;;;4921183;29;20274;-75
2020/12/16 21:22:02;;;;;;;777.17;706.33;;;;;;;;;;4924219;29;20198;-75
2020/12/16 21:24:29;;;;;;;754.50;689.20;;;;;;;;;;4918955;29;20262;-69
2020/12/16 21:27:02;;;;;;;774.23;705.37;;;;;;;;;;4920867;29;20199;-68
2020/12/16 21:29:29;;;;;;;773.23;707.60;;;;;;;;;;4918983;29;20974;-70
2020/12/16 21:31:55;;;;;;;581.33;538.70;;;;;;;;;;4920627;29;20234;-70
2020/12/16 21:34:22;;;;;;;732.97;672.67;;;;;;;;;;4920326;29;20195;-70
2020/12/16 21:36:48;;;;;;;699.93;641.53;;;;;;;;;;4921130;29;20254;-70
2020/12/16 21:39:15;;;;;;;817.83;743.83;;;;;;;;;;4920980;29;20191;-70
2020/12/16 21:41:42;;;;;;;535.10;498.77;;;;;;;;;;4921567;29;20286;-72
2020/12/16 21:44:08;;;;;;;630.70;582.87;;;;;;;;;;4920279;29;20275;-71
2020/12/16 21:46:35;;;;;;;773.70;706.33;;;;;;;;;;4922096;29;20197;-71
2020/12/16 21:49:02;;;;;;;701.30;647.20;;;;;;;;;;4921828;29;20670;-69
2020/12/16 21:51:28;;;;;;;784.67;718.70;;;;;;;;;;4920967;29;20327;-69
2020/12/16 21:53:57;;;;;;;834.90;765.43;;;;;;;;;;4922010;29;20186;-68
2020/12/16 21:56:24;;;;;;;758.33;698.63;;;;;;;;;;4924036;29;20183;-74
2020/12/16 21:58:50;;;;;;;838.30;759.50;;;;;;;;;;4923133;29;21075;-75
2020/12/16 22:01:17;;;;;;;771.37;703.67;;;;;;;;;;4922917;29;20199;-76
2020/12/16 22:03:44;;;;;;;758.17;699.13;;;;;;;;;;4922357;29;20196;-75
2020/12/16 22:06:11;;;;;;;650.97;605.20;;;;;;;;;;4922594;29;20205;-74
2020/12/16 22:08:37;;;;;;;598.40;553.77;;;;;;;;;;4921756;29;20590;-75
2020/12/16 22:11:05;;;;;;;725.83;671.23;;;;;;;;;;4922226;29;20203;-74
2020/12/16 22:13:33;;;;;;;535.37;503.03;;;;;;;;;;4925031;29;20198;-73
2020/12/16 22:18:50;;;;;;;774.33;714.90;;;;;;;;;;4922380;23;20238;-73
2020/12/16 22:21:17;;;;;;;847.17;778.57;;;;;;;;;;4913105;29;20675;-68
2020/12/16 22:23:45;;;;;;;741.20;685.63;;;;;;;;;;4910014;29;20183;-68
2020/12/16 22:26:11;;;;;;;617.27;577.93;;;;;;;;;;5207253;23;20242;-74
2020/12/16 22:28:38;;;;;;;760.60;702.63;;;;;;;;;;4933769;28;20643;-68
2020/12/16 22:31:05;;;;;;;666.70;624.37;;;;;;;;;;4937312;28;20272;-68
2020/12/16 22:33:32;;;;;;;642.40;599.30;;;;;;;;;;4941638;28;20179;-68
2020/12/16 22:35:58;;;;;;;682.13;634.00;;;;;;;;;;4932546;28;20183;-67
2020/12/16 22:38:25;;;;;;;629.23;586.10;;;;;;;;;;4931988;28;20206;-68
2020/12/16 22:40:51;;;;;;;562.00;527.87;;;;;;;;;;4931360;28;20511;-68
2020/12/16 22:43:18;;;;;;;600.73;563.03;;;;;;;;;;4932282;29;20204;-68
2020/12/16 22:45:44;;;;;;;551.07;518.03;;;;;;;;;;4933661;29;20195;-73
2020/12/16 22:48:11;;;;;;;741.50;685.73;;;;;;;;;;4928986;28;20190;-74
2020/12/16 22:50:38;;;;;;;533.17;501.90;;;;;;;;;;4936891;29;20347;-73
2020/12/16 22:53:04;;;;;;;745.60;690.00;;;;;;;;;;4934058;28;20589;-75
2020/12/16 22:55:31;;;;;;;670.03;622.13;;;;;;;;;;4938724;29;20189;-74
2020/12/16 22:57:57;;;;;;;582.63;547.33;;;;;;;;;;4945654;29;20181;-75
2020/12/16 23:00:24;;;;;;;572.90;536.67;;;;;;;;;;4930234;28;20185;-68
2020/12/16 23:02:52;;;;;;;641.40;599.27;;;;;;;;;;4936227;29;20193;-68
2020/12/16 23:05:19;;;;;;;751.37;698.37;;;;;;;;;;4929650;29;20187;-68
2020/12/16 23:07:46;;;;;;;643.03;601.50;;;;;;;;;;4928093;29;20201;-68
2020/12/16 23:10:14;;;;;;;815.20;756.00;;;;;;;;;;4935652;29;20273;-68
